Time;durP1;ratioP1;P1;durP2;ratioP2;P2;SDS_P1;SDS_P2;PMS_P1;PMS_P2;Temp;Humidity;BMP_temperature;BMP_pressure;BME280_temperature;BME280_humidity;BME280_pressure;Samples;Min_cycle;Max_cycle;Signal;HPM_P1;HPM_P2
2022/03/27 00:02:11;;;;;;;;;;;6.70;99.90;;;;;;5006837;28;19925;-76
2022/03/27 00:04:38;;;;;;;;;;;6.70;99.90;;;;;;5027535;28;19925;-76
2022/03/27 00:07:04;;;;;;;;;;;6.70;99.90;;;;;;5030412;28;20376;-74
2022/03/27 00:09:31;;;;;;;;;;;6.70;99.90;;;;;;5015698;28;19929;-76
2022/03/27 00:11:57;;;;;;;;;;;6.80;99.90;;;;;;5024838;28;20387;-76
2022/03/27 00:14:24;;;;;;;;;;;6.70;99.90;;;;;;5002483;28;19933;-76
2022/03/27 00:16:51;;;;;;;;;;;6.60;99.90;;;;;;5012498;28;19934;-79
2022/03/27 00:19:17;;;;;;;;;;;6.60;99.90;;;;;;5008251;28;19972;-76
2022/03/27 00:21:44;;;;;;;;;;;6.60;99.90;;;;;;5009688;28;19925;-76
2022/03/27 00:24:11;;;;;;;;;;;6.50;99.90;;;;;;5007234;28;19931;-76
2022/03/27 00:26:37;;;;;;;;;;;6.50;99.90;;;;;;5010858;28;19925;-75
2022/03/27 00:29:04;;;;;;;;;;;6.60;99.90;;;;;;5014140;28;19925;-75
2022/03/27 00:31:35;;;;;;;;;;;6.70;99.90;;;;;;5012612;28;20377;-76
2022/03/27 00:34:02;;;;;;;;;;;6.50;99.90;;;;;;5013797;28;19925;-76
2022/03/27 00:36:29;;;;;;;;;;;6.50;99.90;;;;;;5010442;28;20008;-76
2022/03/27 00:38:55;;;;;;;;;;;6.60;99.90;;;;;;5006757;28;19929;-77
2022/03/27 00:41:24;;;;;;;;;;;6.70;99.90;;;;;;5011119;28;19930;-76
2022/03/27 00:43:50;;;;;;;;;;;6.60;99.90;;;;;;5006924;28;19976;-78
2022/03/27 00:46:17;;;;;;;;;;;6.50;99.90;;;;;;5006138;28;20391;-76
2022/03/27 00:48:43;;;;;;;;;;;6.50;99.90;;;;;;5006294;28;19941;-76
2022/03/27 00:51:10;;;;;;;;;;;6.40;99.90;;;;;;5005867;28;19945;-76
2022/03/27 00:53:36;;;;;;;;;;;6.40;99.90;;;;;;5008099;28;19926;-75
2022/03/27 00:56:03;;;;;;;;;;;6.50;99.90;;;;;;5010086;28;19929;-76
2022/03/27 00:58:29;;;;;;;;;;;6.50;99.90;;;;;;5010244;28;19925;-76
2022/03/27 01:00:56;;;;;;;;;;;6.50;99.90;;;;;;5000262;28;19930;-77
2022/03/27 01:03:23;;;;;;;;;;;6.50;99.90;;;;;;4998070;28;19972;-76
2022/03/27 01:05:50;;;;;;;;;;;6.50;99.90;;;;;;5004319;28;19980;-75
2022/03/27 01:08:16;;;;;;;;;;;6.50;99.90;;;;;;5011853;28;19930;-75
2022/03/27 01:10:42;;;;;;;;;;;6.50;99.90;;;;;;5005572;28;19925;-77
2022/03/27 01:13:09;;;;;;;;;;;6.60;99.90;;;;;;5003516;28;19948;-76
2022/03/27 01:15:36;;;;;;;;;;;6.60;99.90;;;;;;5006587;28;19953;-76
2022/03/27 01:18:03;;;;;;;;;;;6.60;99.90;;;;;;5005278;28;20369;-76
2022/03/27 01:20:29;;;;;;;;;;;6.60;99.90;;;;;;5010510;28;19976;-76
2022/03/27 01:22:56;;;;;;;;;;;6.60;99.90;;;;;;5005309;28;20008;-79
2022/03/27 01:25:23;;;;;;;;;;;6.60;99.90;;;;;;5008544;28;20332;-76
2022/03/27 01:27:49;;;;;;;;;;;6.60;99.90;;;;;;5011795;28;19926;-76
2022/03/27 01:30:16;;;;;;;;;;;6.60;99.90;;;;;;5013363;28;20457;-76
2022/03/27 01:32:42;;;;;;;;;;;6.60;99.90;;;;;;5007763;28;20284;-75
2022/03/27 01:35:10;;;;;;;;;;;6.50;99.90;;;;;;5007870;28;20392;-76
2022/03/27 01:37:36;;;;;;;;;;;6.50;99.90;;;;;;5009245;28;19926;-76
2022/03/27 01:40:03;;;;;;;;;;;6.70;99.90;;;;;;5009411;28;19925;-77
2022/03/27 01:42:29;;;;;;;;;;;6.70;99.90;;;;;;5005262;28;19929;-76
2022/03/27 01:44:56;;;;;;;;;;;6.70;99.90;;;;;;5010213;28;19926;-76
2022/03/27 01:47:23;;;;;;;;;;;6.70;99.90;;;;;;4996160;28;20012;-76
2022/03/27 01:49:49;;;;;;;;;;;6.70;99.90;;;;;;5001043;28;19926;-75
2022/03/27 01:52:16;;;;;;;;;;;6.70;99.90;;;;;;5006582;28;20031;-74
2022/03/27 01:54:42;;;;;;;;;;;6.60;99.90;;;;;;5024593;28;19981;-76
2022/03/27 01:57:09;;;;;;;;;;;6.70;99.90;;;;;;4998623;28;19933;-76
2022/03/27 01:59:36;;;;;;;;;;;6.60;99.90;;;;;;5006617;28;19929;-76
2022/03/27 02:02:02;;;;;;;;;;;6.40;99.90;;;;;;5004543;28;19926;-77
2022/03/27 02:04:29;;;;;;;;;;;6.30;99.90;;;;;;5008670;28;19925;-76
2022/03/27 02:06:55;;;;;;;;;;;6.20;99.90;;;;;;4999831;28;20329;-76
2022/03/27 02:09:22;;;;;;;;;;;6.30;99.90;;;;;;5005666;28;20720;-76
2022/03/27 02:11:48;;;;;;;;;;;6.30;99.90;;;;;;5004298;28;20293;-76
2022/03/27 02:14:15;;;;;;;;;;;6.50;99.90;;;;;;5021576;28;20316;-76
2022/03/27 02:16:42;;;;;;;;;;;6.50;99.90;;;;;;5024138;28;19925;-78
2022/03/27 02:19:09;;;;;;;;;;;6.40;99.90;;;;;;5004781;28;19975;-76
2022/03/27 02:21:36;;;;;;;;;;;6.50;99.90;;;;;;5003083;28;20328;-76
2022/03/27 02:24:03;;;;;;;;;;;6.40;99.90;;;;;;5031642;28;19929;-79
2022/03/27 02:26:30;;;;;;;;;;;6.30;99.90;;;;;;5023218;28;19925;-76
2022/03/27 02:28:57;;;;;;;;;;;6.10;99.90;;;;;;5028827;28;19925;-77
2022/03/27 02:31:23;;;;;;;;;;;6.10;99.90;;;;;;5031549;28;20556;-77
2022/03/27 02:33:50;;;;;;;;;;;6.10;99.90;;;;;;5010458;28;19925;-76
2022/03/27 02:36:16;;;;;;;;;;;6.10;99.90;;;;;;5006094;28;19925;-76
2022/03/27 02:38:43;;;;;;;;;;;6.00;99.90;;;;;;5025075;28;19940;-76
2022/03/27 02:41:09;;;;;;;;;;;6.10;99.90;;;;;;5016741;28;19940;-76
2022/03/27 02:43:38;;;;;;;;;;;6.10;99.90;;;;;;4997110;28;19926;-76
2022/03/27 02:46:05;;;;;;;;;;;6.10;99.90;;;;;;5002122;28;19933;-79
2022/03/27 02:48:31;;;;;;;;;;;6.10;99.90;;;;;;5024367;28;19929;-76
2022/03/27 02:50:58;;;;;;;;;;;5.90;99.90;;;;;;5026620;28;19925;-76
2022/03/27 02:53:24;;;;;;;;;;;5.80;99.90;;;;;;5024719;28;19929;-75
2022/03/27 02:55:51;;;;;;;;;;;5.80;99.90;;;;;;5016250;28;19929;-76
2022/03/27 02:58:17;;;;;;;;;;;5.80;99.90;;;;;;5020853;28;20039;-76
2022/03/27 03:00:44;;;;;;;;;;;5.90;99.90;;;;;;5022064;28;19925;-76
2022/03/27 03:03:10;;;;;;;;;;;5.90;99.90;;;;;;5018756;28;19925;-76
2022/03/27 03:05:37;;;;;;;;;;;5.90;99.90;;;;;;5018152;28;19925;-76
2022/03/27 03:08:03;;;;;;;;;;;5.90;99.90;;;;;;5031055;28;19925;-76
2022/03/27 03:10:30;;;;;;;;;;;5.90;99.90;;;;;;5013955;28;19929;-75
2022/03/27 03:12:57;;;;;;;;;;;5.80;99.90;;;;;;5015796;28;19925;-76
2022/03/27 03:15:24;;;;;;;;;;;5.80;99.90;;;;;;5019966;28;19932;-77
2022/03/27 03:17:50;;;;;;;;;;;5.70;99.90;;;;;;5005019;28;19965;-75
2022/03/27 03:20:17;;;;;;;;;;;5.70;99.90;;;;;;5029585;28;19925;-76
2022/03/27 03:22:44;;;;;;;;;;;5.70;99.90;;;;;;5017860;28;19932;-76
2022/03/27 03:25:10;;;;;;;;;;;5.80;99.90;;;;;;5024541;28;19932;-78
2022/03/27 03:27:37;;;;;;;;;;;5.70;99.90;;;;;;5022506;28;20281;-76
2022/03/27 03:30:03;;;;;;;;;;;5.80;99.90;;;;;;5025650;28;20004;-76
2022/03/27 03:32:30;;;;;;;;;;;5.80;99.90;;;;;;5030872;28;19921;-76
2022/03/27 03:34:56;;;;;;;;;;;5.60;99.90;;;;;;5025737;28;19929;-75
2022/03/27 03:37:24;;;;;;;;;;;5.70;99.90;;;;;;5024894;28;19948;-75
2022/03/27 03:39:50;;;;;;;;;;;5.70;99.90;;;;;;5029176;28;19925;-75
2022/03/27 03:42:17;;;;;;;;;;;5.70;99.90;;;;;;5024533;28;19941;-75
2022/03/27 03:44:44;;;;;;;;;;;5.70;99.90;;;;;;5033922;28;19932;-75
2022/03/27 03:47:10;;;;;;;;;;;5.70;99.90;;;;;;5015365;28;19925;-77
2022/03/27 03:49:37;;;;;;;;;;;5.80;99.90;;;;;;5029395;28;19925;-76
2022/03/27 03:52:04;;;;;;;;;;;5.80;99.90;;;;;;5028864;28;19936;-76
2022/03/27 03:54:30;;;;;;;;;;;5.80;99.90;;;;;;5030956;28;19925;-75
2022/03/27 03:56:57;;;;;;;;;;;5.90;99.90;;;;;;5020649;28;19926;-75
2022/03/27 03:59:23;;;;;;;;;;;6.00;99.90;;;;;;5023306;28;19925;-75
2022/03/27 04:01:50;;;;;;;;;;;6.00;99.90;;;;;;5027511;28;20392;-76
2022/03/27 04:04:16;;;;;;;;;;;5.90;99.90;;;;;;5033484;28;19951;-75
2022/03/27 04:06:43;;;;;;;;;;;5.80;99.90;;;;;;5022105;28;19926;-74
2022/03/27 04:09:10;;;;;;;;;;;5.80;99.90;;;;;;5029599;28;19925;-76
2022/03/27 04:11:36;;;;;;;;;;;5.80;99.90;;;;;;5025671;28;19929;-75
2022/03/27 04:14:03;;;;;;;;;;;5.70;99.90;;;;;;5025810;28;20311;-75
2022/03/27 04:16:30;;;;;;;;;;;5.80;99.90;;;;;;5021471;28;20391;-75
2022/03/27 04:18:56;;;;;;;;;;;6.00;99.90;;;;;;5030200;28;19933;-75
2022/03/27 04:21:23;;;;;;;;;;;5.80;99.90;;;;;;5022879;28;20308;-75
2022/03/27 04:23:50;;;;;;;;;;;5.90;99.90;;;;;;5032880;28;19925;-75
2022/03/27 04:26:16;;;;;;;;;;;5.80;99.90;;;;;;5033146;28;19925;-78
2022/03/27 04:28:43;;;;;;;;;;;5.90;99.90;;;;;;5023315;28;19929;-74
2022/03/27 04:31:09;;;;;;;;;;;6.00;99.90;;;;;;5018206;28;19932;-76
2022/03/27 04:33:36;;;;;;;;;;;6.00;99.90;;;;;;5020240;28;19941;-75
2022/03/27 04:36:02;;;;;;;;;;;6.00;99.90;;;;;;5021800;28;19929;-75
2022/03/27 04:38:29;;;;;;;;;;;5.80;99.90;;;;;;5019057;28;19936;-74
2022/03/27 04:40:55;;;;;;;;;;;5.80;99.90;;;;;;5020405;28;19932;-75
2022/03/27 04:43:23;;;;;;;;;;;5.70;99.90;;;;;;5017895;28;19979;-76
2022/03/27 04:45:49;;;;;;;;;;;5.70;99.90;;;;;;5023994;28;19967;-75
2022/03/27 04:48:16;;;;;;;;;;;5.60;99.90;;;;;;5030547;28;19939;-76
2022/03/27 04:50:42;;;;;;;;;;;5.60;99.90;;;;;;5026382;28;19933;-75
2022/03/27 04:53:10;;;;;;;;;;;5.70;99.90;;;;;;4999222;28;19925;-76
2022/03/27 04:55:36;;;;;;;;;;;5.70;99.90;;;;;;5003544;28;19932;-75
2022/03/27 04:58:03;;;;;;;;;;;5.50;99.90;;;;;;5024655;28;19929;-75
2022/03/27 05:00:29;;;;;;;;;;;5.50;99.90;;;;;;5020915;28;19937;-75
2022/03/27 05:02:56;;;;;;;;;;;5.50;99.90;;;;;;5022210;28;19925;-75
2022/03/27 05:05:22;;;;;;;;;;;5.50;99.90;;;;;;5004116;28;20023;-76
2022/03/27 05:07:49;;;;;;;;;;;5.60;99.90;;;;;;5008566;28;19940;-76
2022/03/27 05:10:15;;;;;;;;;;;5.50;99.90;;;;;;5022808;28;19932;-76
2022/03/27 05:12:42;;;;;;;;;;;5.50;99.90;;;;;;5024631;28;19921;-75
2022/03/27 05:15:09;;;;;;;;;;;5.50;99.90;;;;;;5018872;28;19929;-76
2022/03/27 05:17:35;;;;;;;;;;;5.60;99.90;;;;;;5033793;28;19925;-75
2022/03/27 05:20:02;;;;;;;;;;;5.40;99.90;;;;;;5027859;28;19983;-74
2022/03/27 05:22:28;;;;;;;;;;;5.40;99.90;;;;;;5021316;28;19925;-76
2022/03/27 05:24:55;;;;;;;;;;;5.60;99.90;;;;;;5025178;28;20299;-75
2022/03/27 05:27:21;;;;;;;;;;;5.70;99.90;;;;;;5026546;28;19929;-78
2022/03/27 05:29:48;;;;;;;;;;;5.60;99.90;;;;;;5021606;28;20292;-75
2022/03/27 05:32:14;;;;;;;;;;;5.60;99.90;;;;;;5023610;28;20296;-75
2022/03/27 05:34:41;;;;;;;;;;;5.50;99.90;;;;;;5023800;28;19925;-75
2022/03/27 05:37:08;;;;;;;;;;;5.60;99.90;;;;;;5014150;28;19933;-75
2022/03/27 05:39:35;;;;;;;;;;;5.60;99.90;;;;;;5025690;28;19926;-75
2022/03/27 05:42:01;;;;;;;;;;;5.60;99.90;;;;;;5024234;28;20460;-75
2022/03/27 05:44:28;;;;;;;;;;;5.50;99.90;;;;;;5007102;28;20381;-75
2022/03/27 05:46:54;;;;;;;;;;;5.40;99.90;;;;;;5007294;28;20285;-75
2022/03/27 05:49:21;;;;;;;;;;;5.40;99.90;;;;;;5026462;28;19933;-75
2022/03/27 05:51:48;;;;;;;;;;;5.40;99.90;;;;;;5017641;28;19929;-76
2022/03/27 05:54:14;;;;;;;;;;;5.40;99.90;;;;;;5030349;28;19978;-76
2022/03/27 05:56:41;;;;;;;;;;;5.50;99.90;;;;;;5039322;28;19925;-74
2022/03/27 05:59:07;;;;;;;;;;;5.50;99.90;;;;;;5019024;28;19925;-76
2022/03/27 06:01:34;;;;;;;;;;;5.60;99.90;;;;;;5022478;28;19929;-75
2022/03/27 06:04:00;;;;;;;;;;;5.60;99.90;;;;;;5028931;28;19931;-75
2022/03/27 06:06:29;;;;;;;;;;;5.60;99.90;;;;;;5014094;28;20317;-78
2022/03/27 06:08:57;;;;;;;;;;;5.70;99.90;;;;;;5013589;28;19926;-75
2022/03/27 06:11:23;;;;;;;;;;;5.70;99.90;;;;;;5025821;28;20384;-75
2022/03/27 06:13:50;;;;;;;;;;;5.80;99.90;;;;;;5004509;28;19975;-75
2022/03/27 06:16:16;;;;;;;;;;;5.80;99.90;;;;;;5016033;28;19932;-75
2022/03/27 06:18:43;;;;;;;;;;;5.80;99.90;;;;;;5025774;28;19930;-75
2022/03/27 06:21:10;;;;;;;;;;;5.80;99.90;;;;;;4995632;28;19932;-76
2022/03/27 06:23:36;;;;;;;;;;;5.90;99.90;;;;;;5013715;28;19924;-75
2022/03/27 06:26:03;;;;;;;;;;;6.00;99.90;;;;;;5014617;28;19929;-75
2022/03/27 06:28:30;;;;;;;;;;;6.10;99.90;;;;;;5013126;28;20023;-76
2022/03/27 06:30:57;;;;;;;;;;;6.10;99.90;;;;;;5014661;28;19933;-77
2022/03/27 06:33:23;;;;;;;;;;;6.30;99.90;;;;;;5020350;28;20376;-77
2022/03/27 06:35:50;;;;;;;;;;;6.40;99.90;;;;;;4998201;28;20396;-77
2022/03/27 06:38:17;;;;;;;;;;;6.40;99.90;;;;;;5015841;28;20369;-77
2022/03/27 06:40:44;;;;;;;;;;;6.40;99.90;;;;;;5012920;28;20351;-77
2022/03/27 06:43:10;;;;;;;;;;;6.40;99.90;;;;;;4999932;28;19926;-77
2022/03/27 06:45:38;;;;;;;;;;;6.50;99.90;;;;;;5015891;28;20372;-77
2022/03/27 06:48:05;;;;;;;;;;;6.50;99.90;;;;;;5008432;28;19925;-76
2022/03/27 06:50:31;;;;;;;;;;;6.50;99.90;;;;;;5021300;28;20443;-78
2022/03/27 06:52:58;;;;;;;;;;;6.50;99.90;;;;;;5021563;28;19925;-77
2022/03/27 06:55:25;;;;;;;;;;;6.50;99.90;;;;;;5006372;28;20386;-77
2022/03/27 06:57:52;;;;;;;;;;;6.60;99.90;;;;;;5002923;28;19921;-77
2022/03/27 07:03:03;;;;;;;;;;;6.60;99.90;;;;;;5001530;28;19926;-77
2022/03/27 07:05:29;;;;;;;;;;;6.60;99.90;;;;;;5019364;28;19926;-77
2022/03/27 07:07:56;;;;;;;;;;;6.80;99.90;;;;;;5018121;28;19933;-77
2022/03/27 07:10:23;;;;;;;;;;;6.90;99.90;;;;;;5003674;28;19933;-77
2022/03/27 07:12:49;;;;;;;;;;;7.00;99.90;;;;;;4997386;28;20361;-77
2022/03/27 07:15:16;;;;;;;;;;;7.00;99.90;;;;;;4998781;28;19925;-77
2022/03/27 07:17:42;;;;;;;;;;;7.10;99.90;;;;;;4997632;28;19934;-79
2022/03/27 07:20:09;;;;;;;;;;;7.20;99.90;;;;;;4998661;28;19933;-78
2022/03/27 07:22:35;;;;;;;;;;;7.20;99.90;;;;;;4993474;28;19934;-79
2022/03/27 07:25:03;;;;;;;;;;;7.20;99.90;;;;;;4995040;28;20479;-78
2022/03/27 07:27:30;;;;;;;;;;;7.20;99.90;;;;;;4995937;28;19933;-78
2022/03/27 07:29:57;;;;;;;;;;;7.40;99.90;;;;;;5009243;28;19941;-77
2022/03/27 07:32:24;;;;;;;;;;;7.30;99.90;;;;;;4995226;28;19980;-78
2022/03/27 07:34:50;;;;;;;;;;;7.40;99.90;;;;;;4990945;28;19926;-78
2022/03/27 07:37:17;;;;;;;;;;;7.40;99.90;;;;;;4996637;28;20639;-78
2022/03/27 07:39:44;;;;;;;;;;;7.40;99.90;;;;;;4995563;28;20012;-77
2022/03/27 07:42:10;;;;;;;;;;;7.30;99.90;;;;;;4991470;28;19992;-78
2022/03/27 07:44:37;;;;;;;;;;;7.50;99.90;;;;;;4993450;28;20392;-80
2022/03/27 07:47:03;;;;;;;;;;;7.50;99.90;;;;;;4994172;28;19934;-76
2022/03/27 07:49:30;;;;;;;;;;;7.50;99.90;;;;;;5002604;28;20448;-77
2022/03/27 07:52:00;;;;;;;;;;;7.60;99.90;;;;;;4995415;28;19921;-77
2022/03/27 07:54:27;;;;;;;;;;;7.70;99.90;;;;;;5000030;28;20388;-78
2022/03/27 07:56:53;;;;;;;;;;;7.70;99.90;;;;;;4991928;28;19926;-78
2022/03/27 07:59:20;;;;;;;;;;;7.80;99.90;;;;;;4999702;28;19934;-78
2022/03/27 08:01:46;;;;;;;;;;;7.80;99.90;;;;;;5001160;28;19933;-77
2022/03/27 08:04:13;;;;;;;;;;;7.80;99.90;;;;;;4998022;28;19930;-78
2022/03/27 08:06:39;;;;;;;;;;;7.90;99.90;;;;;;5010714;28;19926;-80
2022/03/27 08:09:06;;;;;;;;;;;7.90;99.90;;;;;;4992638;28;19926;-78
2022/03/27 08:11:33;;;;;;;;;;;7.90;99.90;;;;;;4997665;28;20353;-77
2022/03/27 08:13:59;;;;;;;;;;;8.00;99.90;;;;;;5012744;28;19925;-77
2022/03/27 08:16:26;;;;;;;;;;;8.10;99.90;;;;;;5017389;28;19929;-78
2022/03/27 08:18:52;;;;;;;;;;;8.10;99.90;;;;;;5029317;28;19929;-78
2022/03/27 08:21:19;;;;;;;;;;;8.20;99.90;;;;;;5012846;28;19926;-78
2022/03/27 08:23:45;;;;;;;;;;;8.40;99.90;;;;;;5018953;28;19929;-79
2022/03/27 08:28:56;;;;;;;;;;;8.40;99.90;;;;;;5010464;28;19975;-79
2022/03/27 08:31:23;;;;;;;;;;;8.40;99.90;;;;;;5026889;28;19933;-78
2022/03/27 08:33:49;;;;;;;;;;;8.30;99.90;;;;;;5006644;28;19925;-78
2022/03/27 08:36:16;;;;;;;;;;;8.30;99.90;;;;;;5017024;28;20004;-77
2022/03/27 08:38:43;;;;;;;;;;;8.40;99.90;;;;;;5017988;28;19929;-80
2022/03/27 08:41:10;;;;;;;;;;;8.40;99.90;;;;;;5004427;28;19979;-77
2022/03/27 08:43:37;;;;;;;;;;;8.50;99.90;;;;;;5005039;28;19926;-77
2022/03/27 08:46:05;;;;;;;;;;;8.60;99.90;;;;;;4997196;28;19926;-78
2022/03/27 08:48:33;;;;;;;;;;;8.60;99.90;;;;;;5017465;28;19925;-78
2022/03/27 08:50:59;;;;;;;;;;;8.50;99.90;;;;;;5016832;28;19937;-78
2022/03/27 08:53:26;;;;;;;;;;;8.60;99.90;;;;;;5017805;28;19973;-77
2022/03/27 08:55:52;;;;;;;;;;;8.70;99.90;;;;;;5013454;28;19929;-78
2022/03/27 08:58:19;;;;;;;;;;;8.80;99.90;;;;;;5013507;28;19930;-77
2022/03/27 09:00:46;;;;;;;;;;;9.00;99.90;;;;;;4995774;28;20612;-79
2022/03/27 09:03:12;;;;;;;;;;;9.20;99.90;;;;;;5024532;28;19929;-78
2022/03/27 09:05:39;;;;;;;;;;;9.20;99.90;;;;;;5025572;28;19929;-77
2022/03/27 09:08:07;;;;;;;;;;;9.50;99.90;;;;;;5011424;28;20436;-77
2022/03/27 09:10:34;;;;;;;;;;;9.50;99.90;;;;;;5013181;28;19930;-79
2022/03/27 09:13:00;;;;;;;;;;;9.40;99.90;;;;;;5018404;28;19937;-77
2022/03/27 09:15:27;;;;;;;;;;;9.40;99.90;;;;;;5008726;28;19929;-77
2022/03/27 09:17:53;;;;;;;;;;;9.50;99.90;;;;;;5021515;28;19929;-77
2022/03/27 09:20:20;;;;;;;;;;;9.60;99.90;;;;;;5026610;28;20003;-77
2022/03/27 09:22:46;;;;;;;;;;;9.60;99.90;;;;;;5018984;28;20419;-79
2022/03/27 09:25:13;;;;;;;;;;;9.60;99.90;;;;;;5026242;28;19972;-77
2022/03/27 09:27:39;;;;;;;;;;;9.70;99.90;;;;;;5022569;28;19936;-77
2022/03/27 09:30:07;;;;;;;;;;;9.80;99.90;;;;;;5026514;28;20111;-77
2022/03/27 09:32:35;;;;;;;;;;;9.90;99.90;;;;;;5012663;28;19929;-78
2022/03/27 09:35:01;;;;;;;;;;;10.20;99.90;;;;;;5007518;28;19959;-77
2022/03/27 09:37:28;;;;;;;;;;;10.40;99.90;;;;;;5018814;28;19928;-79
2022/03/27 09:39:54;;;;;;;;;;;10.30;99.90;;;;;;5014172;28;20012;-77
2022/03/27 09:42:21;;;;;;;;;;;10.50;99.90;;;;;;5022563;28;19933;-77
2022/03/27 09:44:48;;;;;;;;;;;10.70;99.90;;;;;;5012636;28;19925;-80
2022/03/27 09:47:14;;;;;;;;;;;10.90;99.90;;;;;;5018692;28;19929;-78
2022/03/27 09:49:41;;;;;;;;;;;10.90;99.90;;;;;;5012137;28;19930;-78
2022/03/27 09:52:08;;;;;;;;;;;10.90;99.90;;;;;;5022840;28;19929;-78
2022/03/27 09:54:35;;;;;;;;;;;11.00;99.90;;;;;;5023676;28;19929;-78
2022/03/27 09:57:01;;;;;;;;;;;11.20;99.90;;;;;;5024930;28;19929;-78
2022/03/27 09:59:28;;;;;;;;;;;11.30;99.90;;;;;;5003459;28;19933;-78
2022/03/27 10:01:54;;;;;;;;;;;11.40;99.90;;;;;;5013336;28;19936;-80
2022/03/27 10:04:21;;;;;;;;;;;11.30;99.90;;;;;;5022016;28;19936;-76
2022/03/27 10:06:47;;;;;;;;;;;11.30;99.90;;;;;;4992729;28;19926;-78
2022/03/27 10:09:14;;;;;;;;;;;11.20;99.90;;;;;;5019321;28;19925;-78
2022/03/27 10:11:40;;;;;;;;;;;11.30;99.90;;;;;;5022022;28;19991;-78
2022/03/27 10:14:07;;;;;;;;;;;11.40;99.90;;;;;;5011781;28;19937;-78
2022/03/27 10:16:34;;;;;;;;;;;11.40;99.90;;;;;;5024641;28;19929;-78
2022/03/27 10:19:01;;;;;;;;;;;11.30;99.90;;;;;;5023242;28;19929;-78
2022/03/27 10:21:28;;;;;;;;;;;11.20;99.90;;;;;;5020085;28;19929;-78
2022/03/27 10:23:54;;;;;;;;;;;11.40;99.90;;;;;;5010252;28;19929;-81
2022/03/27 10:26:21;;;;;;;;;;;11.60;99.90;;;;;;5022362;28;19925;-78
2022/03/27 10:28:47;;;;;;;;;;;11.70;99.90;;;;;;5016864;28;19932;-78
2022/03/27 10:31:14;;;;;;;;;;;11.90;99.90;;;;;;5015343;28;19926;-78
2022/03/27 10:33:40;;;;;;;;;;;11.80;99.90;;;;;;5020121;28;20400;-78
2022/03/27 10:36:07;;;;;;;;;;;11.90;99.90;;;;;;5034882;28;19932;-76
2022/03/27 10:38:33;;;;;;;;;;;11.90;99.90;;;;;;5019750;28;19926;-78
2022/03/27 10:41:00;;;;;;;;;;;12.00;99.90;;;;;;5011776;28;19925;-78
2022/03/27 10:43:26;;;;;;;;;;;11.90;99.90;;;;;;5005873;28;19952;-78
2022/03/27 10:45:53;;;;;;;;;;;12.00;99.90;;;;;;4996572;28;20293;-78
2022/03/27 10:48:21;;;;;;;;;;;12.10;99.90;;;;;;5012309;28;20273;-80
2022/03/27 10:50:48;;;;;;;;;;;12.20;99.90;;;;;;4996082;28;20293;-78
2022/03/27 10:53:14;;;;;;;;;;;12.30;99.90;;;;;;5021961;28;20636;-78
2022/03/27 10:55:42;;;;;;;;;;;12.40;99.90;;;;;;5024482;28;19925;-79
2022/03/27 10:58:08;;;;;;;;;;;12.30;99.90;;;;;;5020161;28;20007;-79
2022/03/27 11:00:35;;;;;;;;;;;12.50;99.90;;;;;;5008844;28;19933;-78
2022/03/27 11:03:01;;;;;;;;;;;12.50;99.90;;;;;;5027051;28;20388;-78
2022/03/27 11:05:28;;;;;;;;;;;12.70;99.90;;;;;;5019771;28;19929;-79
2022/03/27 11:07:54;;;;;;;;;;;12.90;99.90;;;;;;5012373;28;19933;-78
2022/03/27 11:10:21;;;;;;;;;;;12.70;99.90;;;;;;5021445;28;19932;-77
2022/03/27 11:12:47;;;;;;;;;;;12.90;99.90;;;;;;5006065;28;19929;-79
2022/03/27 11:15:14;;;;;;;;;;;12.90;99.90;;;;;;4998690;28;19929;-77
2022/03/27 11:17:41;;;;;;;;;;;12.90;99.90;;;;;;5013142;28;20545;-78
2022/03/27 11:20:07;;;;;;;;;;;12.80;99.90;;;;;;4991670;28;20365;-78
2022/03/27 11:22:34;;;;;;;;;;;12.80;99.90;;;;;;5002998;28;20690;-78
2022/03/27 11:25:01;;;;;;;;;;;12.90;99.90;;;;;;5014638;28;19987;-80
2022/03/27 11:27:28;;;;;;;;;;;13.10;99.90;;;;;;5020957;28;19940;-78
2022/03/27 11:29:54;;;;;;;;;;;13.10;99.90;;;;;;5012712;28;19929;-78
2022/03/27 11:32:21;;;;;;;;;;;13.20;99.90;;;;;;5000312;28;20770;-78
2022/03/27 11:34:47;;;;;;;;;;;13.30;99.90;;;;;;5021145;28;19937;-78
2022/03/27 11:37:14;;;;;;;;;;;13.30;99.30;;;;;;5002467;28;20008;-78
2022/03/27 11:39:41;;;;;;;;;;;13.20;99.90;;;;;;5011367;28;19955;-78
2022/03/27 11:42:07;;;;;;;;;;;13.20;99.90;;;;;;5018474;28;20459;-78
2022/03/27 11:47:20;;;;;;;;;;;13.00;99.90;;;;;;5020402;28;20292;-77
2022/03/27 11:49:47;;;;;;;;;;;13.30;99.90;;;;;;5004617;28;19933;-78
2022/03/27 11:52:14;;;;;;;;;;;13.40;99.90;;;;;;5023941;28;19936;-78
2022/03/27 11:54:41;;;;;;;;;;;13.30;99.90;;;;;;5023984;28;19928;-78
2022/03/27 11:57:07;;;;;;;;;;;13.40;99.90;;;;;;5031188;28;19972;-78
2022/03/27 11:59:34;;;;;;;;;;;13.30;99.90;;;;;;5005450;28;19924;-78
2022/03/27 12:02:00;;;;;;;;;;;13.30;99.90;;;;;;5019978;28;20218;-78
2022/03/27 12:04:27;;;;;;;;;;;13.30;99.90;;;;;;5024743;28;19955;-78
2022/03/27 12:06:54;;;;;;;;;;;13.50;99.90;;;;;;5027233;28;19929;-78
2022/03/27 12:09:20;;;;;;;;;;;13.50;99.90;;;;;;5011475;28;19929;-78
2022/03/27 12:11:47;;;;;;;;;;;13.50;99.90;;;;;;5021472;28;20288;-78
2022/03/27 12:14:13;;;;;;;;;;;13.60;99.90;;;;;;5012769;28;20709;-78
2022/03/27 12:16:47;;;;;;;;;;;13.60;99.90;;;;;;4994815;28;19929;-78
2022/03/27 12:19:13;;;;;;;;;;;13.50;99.90;;;;;;5006978;28;20432;-78
2022/03/27 12:21:40;;;;;;;;;;;13.40;99.90;;;;;;5024333;28;20336;-78
2022/03/27 12:24:07;;;;;;;;;;;13.50;99.90;;;;;;5024770;28;20364;-80
2022/03/27 12:32:01;;;;;;;;;;;13.70;99.90;;;;;;5023705;28;19929;-78
2022/03/27 12:34:28;;;;;;;;;;;13.90;99.90;;;;;;5021015;28;19948;-78
2022/03/27 12:36:55;;;;;;;;;;;14.00;99.90;;;;;;5014538;28;19936;-78
2022/03/27 12:39:24;;;;;;;;;;;14.10;99.90;;;;;;5028521;28;20019;-78
2022/03/27 12:41:50;;;;;;;;;;;14.40;99.60;;;;;;5019461;28;20398;-78
2022/03/27 12:44:17;;;;;;;;;;;14.30;99.30;;;;;;5026328;28;19933;-78
2022/03/27 12:46:44;;;;;;;;;;;14.30;99.50;;;;;;5020435;28;19925;-78
2022/03/27 12:49:10;;;;;;;;;;;14.40;99.20;;;;;;5028971;28;19929;-81
2022/03/27 12:51:37;;;;;;;;;;;14.40;98.30;;;;;;5019241;28;19937;-79
2022/03/27 12:54:04;;;;;;;;;;;14.20;99.90;;;;;;5024783;28;20020;-79
2022/03/27 12:56:31;;;;;;;;;;;14.20;99.70;;;;;;5002670;28;19926;-78
2022/03/27 12:58:57;;;;;;;;;;;14.30;99.90;;;;;;5023016;28;19938;-78
2022/03/27 13:01:24;;;;;;;;;;;14.50;99.20;;;;;;5016984;28;19932;-78
2022/03/27 13:03:50;;;;;;;;;;;14.60;98.90;;;;;;5019450;28;19937;-78
2022/03/27 13:06:17;;;;;;;;;;;14.60;98.70;;;;;;5022686;28;19941;-78
2022/03/27 13:08:43;;;;;;;;;;;14.60;99.90;;;;;;5014347;28;19930;-79
2022/03/27 13:11:10;;;;;;;;;;;14.80;98.70;;;;;;5024398;28;19979;-79
2022/03/27 13:13:37;;;;;;;;;;;14.90;98.60;;;;;;5018246;28;20416;-79
2022/03/27 13:16:03;;;;;;;;;;;15.00;97.00;;;;;;5028621;28;19940;-79
2022/03/27 13:18:30;;;;;;;;;;;15.00;99.90;;;;;;5012476;28;19929;-79
2022/03/27 13:20:56;;;;;;;;;;;14.90;99.10;;;;;;5003365;28;19936;-78
2022/03/27 13:23:23;;;;;;;;;;;15.20;95.70;;;;;;5021214;28;19976;-77
2022/03/27 13:25:51;;;;;;;;;;;15.20;95.90;;;;;;5009576;28;19925;-78
2022/03/27 13:28:17;;;;;;;;;;;15.10;95.40;;;;;;5026752;28;19932;-78
2022/03/27 13:30:44;;;;;;;;;;;15.00;95.80;;;;;;5020732;28;20015;-79
2022/03/27 13:33:10;;;;;;;;;;;15.10;94.80;;;;;;5020495;28;19929;-78
2022/03/27 13:35:37;;;;;;;;;;;14.80;95.00;;;;;;5006151;28;20359;-78
2022/03/27 13:38:04;;;;;;;;;;;15.00;94.30;;;;;;5014193;28;19936;-77
2022/03/27 13:43:15;;;;;;;;;;;15.00;94.00;;;;;;5020816;28;19951;-80
2022/03/27 13:45:42;;;;;;;;;;;15.10;94.00;;;;;;5009388;28;20467;-78
2022/03/27 13:48:10;;;;;;;;;;;15.10;93.40;;;;;;5013227;28;19929;-77
2022/03/27 13:50:37;;;;;;;;;;;15.20;92.20;;;;;;5022736;28;20177;-78
2022/03/27 13:53:04;;;;;;;;;;;15.10;92.40;;;;;;5018595;28;20592;-78
2022/03/27 13:55:30;;;;;;;;;;;15.10;91.10;;;;;;4998827;28;20302;-78
2022/03/27 13:57:57;;;;;;;;;;;15.10;89.40;;;;;;5028301;28;20432;-78
2022/03/27 14:00:23;;;;;;;;;;;15.10;87.00;;;;;;5023524;28;19940;-78
2022/03/27 14:02:50;;;;;;;;;;;15.10;86.60;;;;;;5009870;28;19925;-78
2022/03/27 14:05:16;;;;;;;;;;;15.00;93.60;;;;;;5004735;28;19925;-78
2022/03/27 14:07:44;;;;;;;;;;;15.00;93.40;;;;;;4992650;28;19937;-78
2022/03/27 14:10:10;;;;;;;;;;;15.00;89.10;;;;;;5016968;28;19925;-80
2022/03/27 14:12:37;;;;;;;;;;;15.20;78.70;;;;;;4998019;28;19933;-77
2022/03/27 14:15:04;;;;;;;;;;;15.30;71.10;;;;;;5001626;28;20424;-78
2022/03/27 14:17:30;;;;;;;;;;;15.40;88.00;;;;;;4999401;28;20391;-78
2022/03/27 14:19:57;;;;;;;;;;;15.30;83.00;;;;;;5020191;28;20296;-78
2022/03/27 14:22:24;;;;;;;;;;;15.40;70.90;;;;;;5012522;28;19933;-79
2022/03/27 14:24:51;;;;;;;;;;;15.40;68.50;;;;;;5002391;28;19935;-78
2022/03/27 14:27:17;;;;;;;;;;;15.30;74.20;;;;;;5020055;28;19944;-78
2022/03/27 14:29:44;;;;;;;;;;;15.50;77.90;;;;;;5005728;28;19936;-79
2022/03/27 14:32:11;;;;;;;;;;;15.40;91.20;;;;;;5026956;28;19929;-78
2022/03/27 14:34:37;;;;;;;;;;;15.30;92.20;;;;;;5006416;28;19933;-78
2022/03/27 14:37:04;;;;;;;;;;;15.30;94.00;;;;;;5020218;28;19978;-78
2022/03/27 14:39:31;;;;;;;;;;;15.40;96.70;;;;;;5027220;28;19925;-76